createdAt,value
2023-02-04T00:00:16.591Z,2.43
2023-02-04T00:02:43.648Z,2.44
2023-02-04T00:05:12.414Z,2.48
2023-02-04T00:07:41.352Z,2.50
2023-02-04T00:10:09.604Z,2.53
2023-02-04T00:12:37.102Z,2.55
2023-02-04T00:15:04.826Z,2.45
2023-02-04T00:17:31.947Z,2.53
2023-02-04T00:19:58.964Z,2.52
2023-02-04T00:22:28.445Z,2.53
2023-02-04T00:24:55.469Z,2.48
2023-02-04T00:27:22.822Z,2.47
2023-02-04T00:29:49.830Z,2.51
2023-02-04T00:32:17.077Z,2.52
2023-02-04T00:34:44.148Z,2.47
2023-02-04T00:37:11.099Z,2.53
2023-02-04T00:39:38.107Z,2.42
2023-02-04T00:42:06.070Z,2.43
2023-02-04T00:44:33.409Z,2.47
2023-02-04T00:47:00.393Z,2.41
2023-02-04T00:49:27.372Z,2.50
2023-02-04T00:51:54.303Z,2.54
2023-02-04T00:54:21.358Z,2.43
2023-02-04T00:56:48.486Z,2.48
2023-02-04T00:59:15.451Z,2.47
2023-02-04T01:01:42.506Z,2.43
2023-02-04T01:04:09.516Z,2.51
2023-02-04T01:06:36.552Z,2.54
2023-02-04T01:09:05.065Z,2.54
2023-02-04T01:11:32.327Z,2.53
2023-02-04T01:13:59.714Z,2.53
2023-02-04T01:16:27.226Z,2.57
2023-02-04T01:18:56.092Z,2.57
2023-02-04T01:21:24.205Z,2.49
2023-02-04T01:23:51.220Z,2.51
2023-02-04T01:26:21.024Z,2.56
2023-02-04T01:28:48.017Z,2.58
2023-02-04T01:31:15.251Z,2.52
2023-02-04T01:33:42.584Z,2.49
2023-02-04T01:36:09.924Z,2.59
2023-02-04T01:38:36.889Z,2.44
2023-02-04T01:41:05.408Z,2.42
2023-02-04T01:43:33.491Z,2.36
2023-02-04T01:46:02.801Z,2.26
2023-02-04T01:48:30.786Z,2.18
2023-02-04T01:51:07.260Z,2.12
2023-02-04T01:53:36.194Z,2.03
2023-02-04T01:56:20.583Z,1.84
2023-02-04T01:58:47.729Z,1.84
2023-02-04T02:01:43.762Z,1.71
2023-02-04T02:04:13.993Z,1.72
2023-02-04T02:06:53.142Z,1.64
2023-02-04T02:09:38.998Z,1.68
2023-02-04T02:12:20.371Z,1.70
2023-02-04T02:15:04.475Z,1.65
2023-02-04T02:17:47.461Z,1.62
2023-02-04T02:20:34.229Z,1.58
2023-02-04T02:23:26.324Z,1.58
2023-02-04T02:25:53.716Z,1.50
2023-02-04T02:28:23.380Z,1.48
2023-02-04T02:30:51.443Z,1.53
2023-02-04T02:33:20.868Z,1.44
2023-02-04T02:35:49.129Z,1.30
2023-02-04T02:38:18.365Z,1.19
2023-02-04T02:40:46.192Z,1.19
2023-02-04T02:43:18.244Z,1.06
2023-02-04T02:45:46.181Z,1.00
2023-02-04T02:48:14.044Z,0.90
2023-02-04T02:50:43.371Z,0.82
2023-02-04T02:53:16.784Z,0.87
2023-02-04T02:55:44.630Z,0.74
2023-02-04T02:58:33.384Z,0.53
2023-02-04T03:01:06.411Z,0.65
2023-02-04T03:03:36.245Z,0.54
2023-02-04T03:06:16.247Z,0.51
2023-02-04T03:08:45.152Z,0.46
2023-02-04T03:11:12.273Z,0.46
2023-02-04T03:13:40.247Z,0.39
2023-02-04T03:16:08.641Z,0.35
2023-02-04T03:18:36.621Z,0.34
2023-02-04T03:21:06.026Z,0.33
2023-02-04T03:23:37.062Z,0.23
2023-02-04T03:26:05.416Z,0.15
2023-02-04T03:28:32.974Z,0.22
2023-02-04T03:31:00.582Z,0.13
2023-02-04T03:33:32.088Z,0.07
2023-02-04T03:35:59.578Z,-0.10
2023-02-04T03:38:26.923Z,-0.10
2023-02-04T03:40:54.044Z,-0.08
2023-02-04T03:43:21.115Z,-0.09
2023-02-04T03:45:48.149Z,-0.03
2023-02-04T03:48:15.153Z,-0.06
2023-02-04T03:50:42.358Z,-0.05
2023-02-04T03:53:09.881Z,-0.14
2023-02-04T03:55:37.297Z,-0.12
2023-02-04T03:58:05.532Z,-0.05
2023-02-04T04:00:32.835Z,-0.06
2023-02-04T04:03:00.683Z,-0.11
2023-02-04T04:05:28.858Z,-0.11
2023-02-04T04:07:56.223Z,-0.26
2023-02-04T04:10:23.456Z,-0.22
2023-02-04T04:12:50.425Z,-0.36
2023-02-04T04:15:17.865Z,-0.37
2023-02-04T04:17:44.898Z,-0.34
2023-02-04T04:20:12.351Z,-0.55
2023-02-04T04:22:40.046Z,-0.54
2023-02-04T04:25:07.876Z,-0.57
2023-02-04T04:27:35.167Z,-0.63
2023-02-04T04:30:02.207Z,-0.70
2023-02-04T04:32:29.259Z,-0.80
2023-02-04T04:34:56.404Z,-0.87
2023-02-04T04:37:23.399Z,-0.98
2023-02-04T04:39:50.360Z,-1.03
2023-02-04T04:42:17.319Z,-1.14
2023-02-04T04:44:44.413Z,-1.13
2023-02-04T04:47:11.367Z,-1.38
2023-02-04T04:49:38.363Z,-1.31
2023-02-04T04:52:05.659Z,-1.38
2023-02-04T04:54:32.710Z,-1.39
2023-02-04T04:56:59.659Z,-1.53
2023-02-04T04:59:26.656Z,-1.61
2023-02-04T05:01:53.790Z,-1.58
2023-02-04T05:04:20.791Z,-1.72
2023-02-04T05:06:47.910Z,-1.61
2023-02-04T05:09:16.966Z,-1.65
2023-02-04T05:11:43.994Z,-1.59
2023-02-04T05:14:10.996Z,-1.61
2023-02-04T05:16:38.166Z,-1.61
2023-02-04T05:19:05.267Z,-1.62
2023-02-04T05:21:32.240Z,-1.78
2023-02-04T05:23:59.280Z,-1.58
2023-02-04T05:26:30.527Z,-1.67
2023-02-04T05:28:57.984Z,-1.66
2023-02-04T05:31:25.059Z,-1.63
2023-02-04T05:33:52.197Z,-1.67
2023-02-04T05:36:19.159Z,-1.72
2023-02-04T05:38:46.110Z,-1.78
2023-02-04T05:41:13.633Z,-1.72
2023-02-04T05:43:40.611Z,-1.82
2023-02-04T05:46:07.592Z,-1.82
2023-02-04T05:48:34.629Z,-1.81
2023-02-04T05:51:01.560Z,-1.77
2023-02-04T05:53:28.539Z,-1.76
2023-02-04T05:55:55.503Z,-1.78
2023-02-04T05:58:22.496Z,-1.94
2023-02-04T06:00:49.532Z,-1.92
2023-02-04T06:03:16.531Z,-2.16
2023-02-04T06:05:44.557Z,-1.87
2023-02-04T06:08:11.481Z,-1.82
2023-02-04T06:10:38.425Z,-1.80
2023-02-04T06:13:05.427Z,-1.77
2023-02-04T06:15:32.365Z,-1.77
2023-02-04T06:17:59.366Z,-1.76
2023-02-04T06:20:26.629Z,-1.77
2023-02-04T06:22:54.752Z,-1.81
2023-02-04T06:25:22.628Z,-1.75
2023-02-04T06:27:49.826Z,-1.75
2023-02-04T06:30:17.252Z,-1.78
2023-02-04T06:32:44.546Z,-1.72
2023-02-04T06:35:13.395Z,-1.73
2023-02-04T06:37:40.508Z,-1.79
2023-02-04T06:40:09.203Z,-1.72
2023-02-04T06:42:36.210Z,-1.74
2023-02-04T06:45:03.576Z,-1.74
2023-02-04T06:47:30.884Z,-1.71
2023-02-04T06:49:57.857Z,-1.76
2023-02-04T06:52:24.945Z,-1.66
2023-02-04T06:54:51.928Z,-1.75
2023-02-04T06:57:18.855Z,-1.76
2023-02-04T06:59:47.344Z,-1.82
2023-02-04T07:02:14.466Z,-1.76
2023-02-04T07:04:43.967Z,-2.12
2023-02-04T07:07:11.777Z,-1.82
2023-02-04T07:09:40.823Z,-1.85
2023-02-04T07:12:08.036Z,-1.81
2023-02-04T07:14:35.109Z,-1.82
2023-02-04T07:17:02.114Z,-1.84
2023-02-04T07:19:29.140Z,-1.86
2023-02-04T07:21:57.291Z,-1.99
2023-02-04T07:24:24.619Z,-1.86
2023-02-04T07:26:51.783Z,-1.85
2023-02-04T07:29:25.043Z,-1.88
2023-02-04T07:31:53.227Z,-1.84
2023-02-04T07:34:20.821Z,-1.89
2023-02-04T07:36:48.133Z,-1.77
2023-02-04T07:39:15.805Z,-1.79
2023-02-04T07:41:42.831Z,-1.80
2023-02-04T07:44:09.806Z,-1.82
2023-02-04T07:46:36.829Z,-1.76
2023-02-04T07:49:03.848Z,-1.78
2023-02-04T07:51:30.834Z,-1.85
2023-02-04T07:53:57.905Z,-1.73
2023-02-04T07:56:24.902Z,-1.76
2023-02-04T07:58:52.308Z,-1.77
2023-02-04T08:01:19.344Z,-1.76
2023-02-04T08:03:46.366Z,-1.80
2023-02-04T08:06:13.457Z,-1.79
2023-02-04T08:08:40.441Z,-1.82
2023-02-04T08:11:07.489Z,-1.80
2023-02-04T08:13:34.402Z,-1.82
2023-02-04T08:16:01.400Z,-1.87
2023-02-04T08:18:28.434Z,-1.85
2023-02-04T08:20:55.785Z,-1.76
2023-02-04T08:23:23.386Z,-1.70
2023-02-04T08:25:50.338Z,-1.67
2023-02-04T08:28:17.467Z,-1.65
2023-02-04T08:30:45.146Z,-1.58
2023-02-04T08:33:12.238Z,-1.60
2023-02-04T08:35:39.234Z,-1.56
2023-02-04T08:38:06.238Z,-1.45
2023-02-04T08:40:33.695Z,-1.35
2023-02-04T08:43:00.868Z,-1.33
2023-02-04T08:45:27.888Z,-1.31
2023-02-04T08:47:54.877Z,-1.42
2023-02-04T08:50:21.871Z,-1.40
2023-02-04T08:52:48.861Z,-1.37
2023-02-04T08:55:16.147Z,-1.31
2023-02-04T08:57:43.192Z,-1.20
2023-02-04T09:00:13.776Z,-1.18
2023-02-04T09:02:40.726Z,-1.03
2023-02-04T09:05:08.004Z,-1.21
2023-02-04T09:07:34.995Z,-1.18
2023-02-04T09:10:01.958Z,-1.20
2023-02-04T09:12:28.940Z,-1.12
2023-02-04T09:14:55.900Z,-1.15
2023-02-04T09:17:22.926Z,-1.04
2023-02-04T09:19:49.872Z,-1.12
2023-02-04T09:22:16.860Z,-0.90
2023-02-04T09:24:43.784Z,-0.94
2023-02-04T09:27:10.789Z,-1.01
2023-02-04T09:29:37.800Z,-0.98
2023-02-04T09:32:05.004Z,-0.98
2023-02-04T09:34:31.991Z,-0.92
2023-02-04T09:36:58.956Z,-0.92
2023-02-04T09:39:25.926Z,-0.91
2023-02-04T09:41:56.004Z,-1.05
2023-02-04T09:44:26.794Z,-0.98
2023-02-04T09:46:57.130Z,-1.12
2023-02-04T09:49:24.748Z,-1.00
2023-02-04T09:51:52.792Z,-0.93
2023-02-04T09:54:22.516Z,-1.16
2023-02-04T09:56:50.860Z,-1.29
2023-02-04T09:59:20.578Z,-1.39
2023-02-04T10:01:56.067Z,-1.30
2023-02-04T10:04:23.767Z,-1.04
2023-02-04T10:06:50.888Z,-1.01
2023-02-04T10:09:18.743Z,-1.08
2023-02-04T10:11:48.585Z,-0.81
2023-02-04T10:14:19.844Z,-0.63
2023-02-04T10:17:02.518Z,-0.65
2023-02-04T10:19:31.353Z,-0.71
2023-02-04T10:21:58.923Z,-1.07
2023-02-04T10:24:28.365Z,-1.31
2023-02-04T10:26:55.460Z,-1.29
2023-02-04T10:29:27.369Z,-1.27
2023-02-04T10:31:54.374Z,-0.94
2023-02-04T10:34:40.009Z,-0.68
2023-02-04T10:37:20.940Z,-0.31
2023-02-04T10:39:50.026Z,-0.33
2023-02-04T10:42:27.706Z,-0.58
2023-02-04T10:44:55.349Z,-0.64
2023-02-04T10:47:29.205Z,-0.74
2023-02-04T10:50:09.005Z,-1.06
2023-02-04T10:52:41.925Z,-1.08
2023-02-04T10:55:16.182Z,-0.95
2023-02-04T10:57:45.898Z,-1.20
2023-02-04T11:00:21.871Z,-1.07
2023-02-04T11:02:58.723Z,-0.98
2023-02-04T11:05:31.776Z,-0.88
2023-02-04T11:07:59.221Z,-1.04
2023-02-04T11:10:32.017Z,-0.94
2023-02-04T11:13:01.156Z,-0.92
2023-02-04T11:15:50.562Z,-0.97
2023-02-04T11:18:21.193Z,-0.79
2023-02-04T11:20:53.492Z,-1.07
2023-02-04T11:23:26.589Z,-0.96
2023-02-04T11:26:08.718Z,-0.96
2023-02-04T11:28:41.394Z,-1.08
2023-02-04T11:31:29.081Z,-1.14
2023-02-04T11:34:14.252Z,-1.31
2023-02-04T11:36:58.750Z,-1.21
2023-02-04T11:39:37.536Z,-1.28
2023-02-04T11:42:20.526Z,-1.14
2023-02-04T11:45:01.594Z,-1.28
2023-02-04T11:47:40.371Z,-1.16
2023-02-04T11:50:25.408Z,-1.30
2023-02-04T11:52:55.085Z,-1.24
2023-02-04T11:55:22.277Z,-1.19
2023-02-04T11:57:53.534Z,-1.23
2023-02-04T12:00:31.156Z,-1.31
2023-02-04T12:03:08.081Z,-1.42
2023-02-04T12:05:47.808Z,-1.32
2023-02-04T12:08:25.690Z,-1.11
2023-02-04T12:11:01.738Z,-1.06
2023-02-04T12:13:30.798Z,-1.12
2023-02-04T12:16:06.737Z,-1.14
2023-02-04T12:18:35.538Z,-1.13
2023-02-04T12:21:04.622Z,-1.08
2023-02-04T12:23:31.840Z,-1.14
2023-02-04T12:25:58.825Z,-0.99
2023-02-04T12:28:26.279Z,-1.09
2023-02-04T12:30:53.364Z,-1.16
2023-02-04T12:33:20.558Z,-1.32
2023-02-04T12:35:47.737Z,-1.43
2023-02-04T12:38:14.836Z,-1.40
2023-02-04T12:40:41.824Z,-1.40
2023-02-04T12:43:09.459Z,-1.23
2023-02-04T12:45:36.699Z,-1.22
2023-02-04T12:48:03.848Z,-1.23
2023-02-04T12:50:30.856Z,-1.30
2023-02-04T12:52:59.440Z,-1.19
2023-02-04T12:55:28.485Z,-1.28
2023-02-04T12:57:56.555Z,-1.41
2023-02-04T13:00:24.656Z,-1.36
2023-02-04T13:02:51.621Z,-1.38
2023-02-04T13:05:18.916Z,-1.38
2023-02-04T13:07:45.921Z,-1.38
2023-02-04T13:10:14.019Z,-1.29
2023-02-04T13:12:41.315Z,-1.25
2023-02-04T13:15:09.174Z,-1.16
2023-02-04T13:17:36.268Z,-1.35
2023-02-04T13:20:03.998Z,-1.19
2023-02-04T13:22:31.282Z,-1.05
2023-02-04T13:24:58.324Z,-1.09
2023-02-04T13:27:25.292Z,-1.16
2023-02-04T13:29:52.333Z,-1.21
2023-02-04T13:32:19.266Z,-1.33
2023-02-04T13:34:46.305Z,-1.54
2023-02-04T13:37:13.253Z,-1.31
2023-02-04T13:39:40.262Z,-1.22
2023-02-04T13:42:07.245Z,-1.27
2023-02-04T13:44:34.266Z,-1.48
2023-02-04T13:47:01.330Z,-1.64
2023-02-04T13:49:28.294Z,-1.87
2023-02-04T13:51:56.521Z,-1.83
2023-02-04T13:54:25.098Z,-1.71
2023-02-04T13:56:52.205Z,-1.56
2023-02-04T13:59:20.955Z,-1.52
2023-02-04T14:01:48.133Z,-1.81
2023-02-04T14:04:15.318Z,-1.88
2023-02-04T14:06:43.833Z,-1.90
2023-02-04T14:09:15.389Z,-1.88
2023-02-04T14:11:42.314Z,-1.98
2023-02-04T14:14:09.387Z,-2.02
2023-02-04T14:16:37.899Z,-2.03
2023-02-04T14:19:06.143Z,-2.05
2023-02-04T14:21:33.354Z,-2.29
2023-02-04T14:24:01.302Z,-2.44
2023-02-04T14:26:28.281Z,-2.36
2023-02-04T14:28:55.268Z,-2.35
2023-02-04T14:31:22.267Z,-2.40
2023-02-04T14:33:50.614Z,-2.44
2023-02-04T14:36:17.948Z,-2.53
2023-02-04T14:38:44.933Z,-2.46
2023-02-04T14:41:16.492Z,-2.42
2023-02-04T14:43:43.586Z,-2.35
2023-02-04T14:46:11.983Z,-2.38
2023-02-04T14:48:39.174Z,-2.37
2023-02-04T14:51:06.349Z,-2.37
2023-02-04T14:53:33.351Z,-2.39
2023-02-04T14:56:00.327Z,-2.38
2023-02-04T14:58:28.046Z,-2.38
2023-02-04T15:00:55.882Z,-2.28
2023-02-04T15:03:23.077Z,-2.27
2023-02-04T15:05:49.988Z,-2.27
2023-02-04T15:08:17.109Z,-2.31
2023-02-04T15:10:44.030Z,-2.34
2023-02-04T15:13:11.834Z,-2.30
2023-02-04T15:15:38.815Z,-2.33
2023-02-04T15:18:05.947Z,-2.36
2023-02-04T15:20:33.182Z,-2.32
2023-02-04T15:23:00.893Z,-2.30
2023-02-04T15:25:28.156Z,-2.34
2023-02-04T15:27:55.328Z,-2.34
2023-02-04T15:30:23.154Z,-2.40
2023-02-04T15:32:50.138Z,-2.42
2023-02-04T15:35:17.108Z,-2.45
2023-02-04T15:37:44.115Z,-2.37
2023-02-04T15:40:12.309Z,-2.41
2023-02-04T15:42:39.264Z,-2.50
2023-02-04T15:45:06.791Z,-2.51
2023-02-04T15:47:33.747Z,-2.47
2023-02-04T15:50:00.760Z,-2.46
2023-02-04T15:52:29.220Z,-2.54
2023-02-04T15:54:56.375Z,-2.52
2023-02-04T15:57:32.272Z,-2.53
2023-02-04T15:59:59.305Z,-2.70
2023-02-04T16:02:26.386Z,-2.45
2023-02-04T16:04:53.570Z,-2.53
2023-02-04T16:07:20.573Z,-2.55
2023-02-04T16:09:47.552Z,-2.47
2023-02-04T16:12:14.584Z,-2.44
2023-02-04T16:14:41.542Z,-2.50
2023-02-04T16:17:09.918Z,-2.68
2023-02-04T16:19:37.018Z,-2.64
2023-02-04T16:22:05.650Z,-2.68
2023-02-04T16:24:33.363Z,-2.68
2023-02-04T16:27:00.425Z,-2.75
2023-02-04T16:29:28.035Z,-2.76
2023-02-04T16:31:56.591Z,-2.64
2023-02-04T16:34:26.224Z,-2.76
2023-02-04T16:36:54.698Z,-2.75
2023-02-04T16:39:22.645Z,-2.77
2023-02-04T16:41:49.615Z,-2.70
2023-02-04T16:44:16.538Z,-2.76
2023-02-04T16:46:44.057Z,-2.76
2023-02-04T16:49:11.763Z,-2.95
2023-02-04T16:51:38.754Z,-2.74
2023-02-04T16:54:07.989Z,-2.73
2023-02-04T16:56:35.874Z,-2.74
2023-02-04T16:59:03.216Z,-2.79
2023-02-04T17:01:30.665Z,-2.76
2023-02-04T17:04:00.438Z,-2.74
2023-02-04T17:06:29.622Z,-2.74
2023-02-04T17:08:57.265Z,-2.73
2023-02-04T17:11:34.657Z,-2.74
2023-02-04T17:14:10.963Z,-2.80
2023-02-04T17:16:38.047Z,-2.74
2023-02-04T17:19:05.766Z,-2.71
2023-02-04T17:21:32.880Z,-2.68
2023-02-04T17:24:04.276Z,-2.76
2023-02-04T17:26:37.517Z,-2.70
2023-02-04T17:29:09.129Z,-2.70
2023-02-04T17:31:36.341Z,-2.65
2023-02-04T17:34:03.827Z,-2.71
2023-02-04T17:36:31.387Z,-2.72
2023-02-04T17:38:58.769Z,-2.67
2023-02-04T17:41:25.974Z,-2.66
2023-02-04T17:43:53.047Z,-2.61
2023-02-04T17:46:20.164Z,-2.63
2023-02-04T17:48:47.448Z,-2.64
2023-02-04T17:51:14.513Z,-2.62
2023-02-04T17:53:41.699Z,-2.58
2023-02-04T17:56:12.845Z,-2.57
2023-02-04T17:58:40.552Z,-2.55
2023-02-04T18:01:13.317Z,-2.58
2023-02-04T18:03:42.963Z,-2.52
2023-02-04T18:06:25.233Z,-2.47
2023-02-04T18:08:53.188Z,-2.51
2023-02-04T18:11:28.201Z,-2.47
2023-02-04T18:14:10.651Z,-2.53
2023-02-04T18:16:40.021Z,-2.44
2023-02-04T18:19:28.241Z,-2.44
2023-02-04T18:21:58.340Z,-2.42
2023-02-04T18:24:36.461Z,-2.39
2023-02-04T18:27:23.983Z,-2.40
2023-02-04T18:29:57.146Z,-2.40
2023-02-04T18:32:30.456Z,-2.39
2023-02-04T18:34:59.032Z,-2.41
2023-02-04T18:37:40.471Z,-2.34
2023-02-04T18:40:10.479Z,-2.38
2023-02-04T18:42:43.377Z,-2.41
2023-02-04T18:45:23.045Z,-2.39
2023-02-04T18:47:50.078Z,-2.41
2023-02-04T18:50:35.008Z,-2.40
2023-02-04T18:53:18.585Z,-2.41
2023-02-04T18:55:49.490Z,-2.42
2023-02-04T18:58:37.944Z,-2.45
2023-02-04T19:01:11.230Z,-2.47
2023-02-04T19:03:53.016Z,-2.45
2023-02-04T19:06:33.553Z,-2.45
2023-02-04T19:09:24.091Z,-2.45
2023-02-04T19:11:56.056Z,-2.50
2023-02-04T19:14:41.920Z,-2.52
2023-02-04T19:17:15.574Z,-2.53
2023-02-04T19:20:02.372Z,-2.49
2023-02-04T19:22:45.254Z,-2.48
2023-02-04T19:25:29.065Z,-2.47
2023-02-04T19:28:03.299Z,-2.47
2023-02-04T19:30:30.353Z,-2.44
2023-02-04T19:32:59.551Z,-2.41
2023-02-04T19:35:39.861Z,-2.39
2023-02-04T19:38:48.221Z,-2.32
2023-02-04T19:41:39.208Z,-2.31
2023-02-04T19:44:08.997Z,-2.32
2023-02-04T19:46:37.023Z,-2.35
2023-02-04T19:49:17.409Z,-2.34
2023-02-04T19:51:48.794Z,-2.38
2023-02-04T19:54:23.360Z,-2.33
2023-02-04T19:56:54.889Z,-2.29
2023-02-04T19:59:29.202Z,-2.38
2023-02-04T20:02:08.519Z,-2.26
2023-02-04T20:04:41.303Z,-2.23
2023-02-04T20:07:23.089Z,-2.30
2023-02-04T20:09:58.669Z,-2.49
2023-02-04T20:12:28.236Z,-2.32
2023-02-04T20:14:57.998Z,-2.37
2023-02-04T20:17:46.014Z,-2.45
2023-02-04T20:20:29.542Z,-2.53
2023-02-04T20:23:01.937Z,-2.51
2023-02-04T20:25:35.574Z,-2.59
2023-02-04T20:28:35.118Z,-2.47
2023-02-04T20:31:03.652Z,-2.42
2023-02-04T20:34:00.193Z,-2.59
2023-02-04T20:36:27.162Z,-2.67
2023-02-04T20:39:14.186Z,-2.65
2023-02-04T20:41:41.162Z,-2.78
2023-02-04T20:44:20.624Z,-2.75
2023-02-04T20:46:47.623Z,-2.84
2023-02-04T20:49:23.343Z,-2.74
2023-02-04T20:51:52.145Z,-2.78
2023-02-04T20:54:19.335Z,-2.78
2023-02-04T20:56:46.424Z,-2.78
2023-02-04T20:59:21.448Z,-2.79
2023-02-04T21:01:50.479Z,-2.84
2023-02-04T21:04:19.901Z,-2.82
2023-02-04T21:06:47.178Z,-2.84
2023-02-04T21:09:25.777Z,-2.89
2023-02-04T21:11:54.849Z,-2.88
2023-02-04T21:14:23.098Z,-2.86
2023-02-04T21:16:50.529Z,-2.90
2023-02-04T21:19:17.543Z,-2.94
2023-02-04T21:21:44.920Z,-3.06
2023-02-04T21:24:11.951Z,-3.01
2023-02-04T21:26:38.958Z,-2.95
2023-02-04T21:29:06.350Z,-3.03
2023-02-04T21:31:33.733Z,-2.96
2023-02-04T21:34:00.938Z,-3.00
2023-02-04T21:36:28.063Z,-3.07
2023-02-04T21:38:56.199Z,-3.09
2023-02-04T21:41:24.272Z,-3.08
2023-02-04T21:43:51.730Z,-3.22
2023-02-04T21:46:19.447Z,-3.22
2023-02-04T21:48:46.751Z,-3.32
2023-02-04T21:51:14.917Z,-3.20
2023-02-04T21:53:42.209Z,-3.25
2023-02-04T21:56:09.880Z,-3.20
2023-02-04T21:58:38.887Z,-3.22
2023-02-04T22:01:06.178Z,-3.23
2023-02-04T22:03:33.559Z,-3.30
2023-02-04T22:06:00.639Z,-3.22
2023-02-04T22:08:27.816Z,-3.30
2023-02-04T22:10:54.858Z,-3.34
2023-02-04T22:13:21.823Z,-3.36
2023-02-04T22:15:48.869Z,-3.44
2023-02-04T22:18:18.229Z,-3.42
2023-02-04T22:20:45.316Z,-3.45
2023-02-04T22:23:12.464Z,-3.45
2023-02-04T22:25:39.472Z,-3.47
2023-02-04T22:28:06.578Z,-3.52
2023-02-04T22:30:33.615Z,-3.49
2023-02-04T22:33:01.902Z,-3.43
2023-02-04T22:35:30.047Z,-3.39
2023-02-04T22:38:01.074Z,-3.40
2023-02-04T22:40:28.909Z,-3.39
2023-02-04T22:42:55.941Z,-3.33
2023-02-04T22:45:23.067Z,-3.29
2023-02-04T22:47:50.803Z,-3.32
2023-02-04T22:50:17.783Z,-3.26
2023-02-04T22:52:44.758Z,-3.26
2023-02-04T22:55:11.753Z,-3.26
2023-02-04T22:57:38.737Z,-3.31
2023-02-04T23:00:09.319Z,-3.30
2023-02-04T23:02:36.396Z,-3.30
2023-02-04T23:05:04.359Z,-3.23
2023-02-04T23:07:31.775Z,-3.30
2023-02-04T23:09:58.799Z,-3.25
2023-02-04T23:12:26.016Z,-3.26
2023-02-04T23:14:52.964Z,-3.31
2023-02-04T23:17:19.935Z,-3.35
2023-02-04T23:19:47.056Z,-3.40
2023-02-04T23:22:15.631Z,-3.37
2023-02-04T23:24:43.769Z,-3.36
2023-02-04T23:27:14.042Z,-3.42
2023-02-04T23:29:41.096Z,-3.50
2023-02-04T23:32:09.496Z,-3.26
2023-02-04T23:34:37.050Z,-3.33
2023-02-04T23:37:04.070Z,-3.36
2023-02-04T23:39:31.373Z,-3.32
2023-02-04T23:41:58.609Z,-3.34
2023-02-04T23:44:25.782Z,-3.54
2023-02-04T23:46:52.853Z,-3.38
2023-02-04T23:49:19.862Z,-3.46
2023-02-04T23:51:46.966Z,-3.46
2023-02-04T23:54:14.053Z,-3.42
2023-02-04T23:56:41.154Z,-3.43
2023-02-04T23:59:08.700Z,-3.55
